Time;durP1;ratioP1;P1;durP2;ratioP2;P2;SDS_P1;SDS_P2;PMS_P1;PMS_P2;Temp;Humidity;BMP_temperature;BMP_pressure;BME280_temperature;BME280_humidity;BME280_pressure;Samples;Min_cycle;Max_cycle;Signal;HPM_P1;HPM_P2
2023/03/02 00:01:42;;;;;;;;;;;;;;;;;;;;;
2023/03/02 00:04:55;;;;;;;;;;;;;;;;;;;;;
2023/03/02 00:07:49;;;;;;;;;;;;;;;3.72;100.00;101518.38;4928301;29;20060;-96
2023/03/02 00:10:24;;;;;;;3.55;2.15;;;;;;;3.49;100.00;101479.47;4936580;29;19982;-96
2023/03/02 00:13:09;;;;;;;7.15;2.85;;;;;;;3.45;100.00;101488.06;4934585;29;20067;-96
2023/03/02 00:16:18;;;;;;;;;;;;;;;;;;;;;
2023/03/02 00:18:52;;;;;;;5.22;2.28;;;;;;;3.34;100.00;101481.38;4933183;29;20075;-96
2023/03/02 00:21:56;;;;;;;5.63;2.83;;;;;;;3.29;100.00;101483.13;4921310;29;20108;-96
2023/03/02 00:27:48;;;;;;;7.65;2.50;;;;;;;3.24;100.00;101486.56;4936065;29;20036;-96
2023/03/02 00:30:39;;;;;;;6.93;2.75;;;;;;;3.25;100.00;101485.72;4932830;29;20374;-96
2023/03/02 00:33:14;;;;;;;7.38;3.83;;;;;;;3.25;100.00;101486.56;4935304;29;20064;-96
2023/03/02 00:36:01;;;;;;;6.85;3.05;;;;;;;3.21;100.00;101483.19;4936155;29;20032;-96
2023/03/02 00:38:40;;;;;;;7.75;2.50;;;;;;;3.39;100.00;101510.25;4931750;29;20048;-96
2023/03/02 00:41:07;;;;;;;6.28;2.42;;;;;;;3.31;100.00;101481.38;4917041;29;20111;-96
2023/03/02 00:51:37;;;;;;;5.13;2.30;;;;;;;3.27;100.00;101484.84;4932732;29;20063;-96
2023/03/02 00:54:14;;;;;;;9.07;3.78;;;;;;;3.30;100.00;101484.81;4935171;29;20042;-96
2023/03/02 00:56:52;;;;;;;3.58;2.25;;;;;;;3.36;100.00;101483.88;4922663;29;20077;-96
2023/03/02 00:59:36;;;;;;;5.05;2.03;;;;;;;3.42;100.00;101484.69;4935739;29;20064;-96
2023/03/02 01:02:07;;;;;;;12.07;2.30;;;;;;;3.36;100.00;101471.97;4935311;29;20025;-96
2023/03/02 01:04:47;;;;;;;8.93;2.65;;;;;;;3.37;100.00;101481.34;4930538;29;20039;-96
2023/03/02 01:07:20;;;;;;;6.90;2.17;;;;;;;3.34;100.00;101485.59;4930824;29;20028;-96
2023/03/02 01:09:47;;;;;;;5.20;1.75;;;;;;;3.48;100.00;101528.84;4931494;29;20046;-96
2023/03/02 01:12:20;;;;;;;6.20;2.25;;;;;;;3.42;100.00;101494.88;4915860;29;20485;-96
2023/03/02 01:14:52;;;;;;;6.00;1.85;;;;;;;3.28;100.00;101481.44;4930992;29;20402;-96
2023/03/02 01:17:24;;;;;;;4.40;2.33;;;;;;;3.20;100.00;101478.13;4915182;29;20059;-96
2023/03/02 01:20:15;;;;;;;8.93;1.90;;;;;;;3.16;100.00;101477.28;4932412;29;20024;-96
2023/03/02 01:22:46;;;;;;;4.35;2.05;;;;;;;3.19;100.00;101471.31;4932112;29;20031;-96
2023/03/02 01:25:15;;;;;;;5.72;1.85;;;;;;;3.25;100.00;101486.56;4932518;29;20060;-96
2023/03/02 01:27:48;;;;;;;5.88;2.08;;;;;;;3.16;100.00;101461.97;4916514;29;20139;-96
2023/03/02 01:30:26;;;;;;;6.32;1.67;;;;;;;3.19;100.00;101461.97;4933874;29;20032;-96
2023/03/02 01:33:12;;;;;;;5.22;1.85;;;;;;;3.54;100.00;101503.28;4931833;29;20048;-96
2023/03/02 01:35:43;;;;;;;4.57;1.50;;;;;;;3.21;100.00;101454.28;4916381;29;20055;-96
2023/03/02 01:38:11;;;;;;;4.63;2.07;;;;;;;3.30;100.00;101446.53;4926375;29;20036;-96
2023/03/02 01:40:45;;;;;;;3.33;1.67;;;;;;;3.22;100.00;101446.63;4896512;29;20291;-96
2023/03/02 01:43:15;;;;;;;7.50;2.03;;;;;;;3.12;100.00;101449.28;4913041;29;20037;-96
2023/03/02 01:45:55;;;;;;;6.28;1.75;;;;;;;3.36;100.00;101484.72;4908846;29;20088;-96
2023/03/02 01:48:29;;;;;;;5.10;2.20;;;;;;;3.16;100.00;101456.88;4911464;29;20069;-96
2023/03/02 01:51:15;;;;;;;4.40;2.17;;;;;;;3.19;100.00;101482.38;4893544;29;20044;-96
2023/03/02 01:54:03;;;;;;;4.60;1.65;;;;;;;2.94;100.00;101456.25;4912875;29;20045;-96
2023/03/02 01:56:48;;;;;;;2.97;1.42;;;;;;;3.08;100.00;101483.34;4898243;29;20032;-96
2023/03/02 01:59:47;;;;;;;5.50;2.17;;;;;;;2.97;100.00;101445.16;4915033;29;20051;-96
2023/03/02 02:02:16;;;;;;;5.38;1.80;;;;;;;2.74;100.00;101435.19;4905542;29;20044;-96
2023/03/02 02:05:04;;;;;;;5.38;1.88;;;;;;;2.59;100.00;101433.63;4920560;29;20036;-96
2023/03/02 02:07:43;;;;;;;5.68;1.75;;;;;;;2.52;100.00;101426.91;4919733;29;20044;-96
2023/03/02 02:15:34;;;;;;;5.93;2.30;;;;;;;2.60;100.00;101470.16;5000495;23;20036;-96
2023/03/02 02:18:11;;;;;;;5.90;2.22;;;;;;;2.29;100.00;101430.47;4967883;23;20025;-96
2023/03/02 02:20:48;;;;;;;4.50;2.40;;;;;;;2.11;100.00;101428.03;4916536;29;20065;-96
2023/03/02 02:23:26;;;;;;;6.20;2.47;;;;;;;2.30;100.00;101466.97;4930532;29;20028;-96
2023/03/02 02:26:00;;;;;;;5.82;2.35;;;;;;;2.58;100.00;101475.25;4916577;29;20028;-96
2023/03/02 02:29:04;;;;;;;4.15;2.60;;;;;;;2.39;100.00;101433.81;4912810;29;20029;-96
2023/03/02 02:31:52;;;;;;;7.32;2.83;;;;;;;2.54;100.00;101471.91;4898745;29;20080;-96
2023/03/02 02:34:38;;;;;;;5.47;2.72;;;;;;;2.32;100.00;101414.31;4899302;29;20041;-96
2023/03/02 02:37:23;;;;;;;4.82;2.72;;;;;;;2.52;100.00;101432.84;4899791;29;20083;-96
2023/03/02 02:39:57;;;;;;;6.32;2.83;;;;;;;2.44;100.00;101423.53;4898965;29;20033;-96
2023/03/02 02:42:40;;;;;;;6.38;3.05;;;;;;;2.43;100.00;101421.88;4900947;29;20030;-96
2023/03/02 02:45:27;;;;;;;6.30;3.50;;;;;;;2.42;100.00;101415.94;4899709;29;20484;-96
2023/03/02 02:48:04;;;;;;;7.68;2.75;;;;;;;2.56;100.00;101437.06;4900447;29;20041;-96
2023/03/02 02:50:58;;;;;;;;;;;;;;;;;;;;;
2023/03/02 02:54:03;;;;;;;9.40;3.03;;;;;;;2.56;100.00;101424.31;4898765;29;20065;-96
2023/03/02 02:56:36;;;;;;;7.78;3.13;;;;;;;2.61;100.00;101418.31;4897410;29;20045;-96
2023/03/02 02:59:11;;;;;;;5.22;3.10;;;;;;;3.04;100.00;101461.28;4883103;29;20025;-96
2023/03/02 03:01:45;;;;;;;7.95;3.00;;;;;;;2.59;100.00;101412.41;4896897;29;20063;-96
2023/03/02 03:04:27;;;;;;;4.68;2.60;;;;;;;2.52;100.00;101403.97;4882367;29;20029;-96
2023/03/02 03:07:03;;;;;;;5.03;2.60;;;;;;;2.77;100.00;101427.53;4880909;29;20045;-96
2023/03/02 03:09:39;;;;;;;7.05;3.08;;;;;;;2.87;100.00;101452.06;4898465;29;20069;-96
2023/03/02 03:12:20;;;;;;;8.45;3.50;;;;;;;2.55;100.00;101412.41;4898477;29;20369;-96
2023/03/02 03:14:49;;;;;;;11.10;3.30;;;;;;;2.44;100.00;101419.31;4892604;29;20034;-96
2023/03/02 03:17:24;;;;;;;6.53;2.60;;;;;;;2.54;100.00;101431.13;4893536;29;20025;-96
2023/03/02 03:20:22;;;;;;;3.63;2.88;;;;;;;2.43;100.00;101412.50;4900000;29;20069;-96
2023/03/02 03:22:49;;;;;;;5.60;2.90;;;;;;;2.43;100.00;101417.63;4897378;29;20051;-96
2023/03/02 03:25:41;;;;;;;9.13;3.20;;;;;;;2.65;100.00;101432.72;4882674;29;20044;-96
2023/03/02 03:28:13;;;;;;;6.50;3.17;;;;;;;2.46;100.00;101411.66;4901196;29;20089;-96
2023/03/02 03:30:48;;;;;;;6.50;3.83;;;;;;;2.53;100.00;101423.47;4899664;29;20036;-95
2023/03/02 03:33:21;;;;;;;13.45;3.28;;;;;;;2.52;100.00;101417.53;4883194;29;20036;-96
2023/03/02 03:35:52;;;;;;;7.72;2.92;;;;;;;2.69;100.00;101444.59;4898411;29;20033;-96
2023/03/02 03:38:32;;;;;;;;;;;;;;;;;;;;;
2023/03/02 03:41:28;;;;;;;5.38;3.33;;;;;;;2.48;100.00;101418.41;4899937;29;20095;-96
2023/03/02 03:43:58;;;;;;;6.03;3.58;;;;;;;2.49;100.00;101427.78;4897947;29;20205;-96
2023/03/02 03:46:27;;;;;;;11.70;3.30;;;;;;;2.44;100.00;101419.31;4899318;29;20025;-96
2023/03/02 03:48:56;;;;;;;8.10;2.90;;;;;;;2.71;100.00;101463.28;4896034;29;20029;-96
2023/03/02 03:51:38;;;;;;;8.05;3.20;;;;;;;2.61;100.00;101436.16;4895989;29;20044;-96
2023/03/02 03:54:09;;;;;;;13.13;3.90;;;;;;;2.67;100.00;101449.69;4884536;29;20066;-96
2023/03/02 03:56:49;;;;;;;9.23;3.45;;;;;;;2.58;100.00;101421.72;4899428;29;20021;-96
2023/03/02 03:59:26;;;;;;;9.52;3.15;;;;;;;2.87;100.00;101462.25;4901343;29;20060;-96
2023/03/02 04:02:04;;;;;;;6.55;3.20;;;;;;;2.89;100.00;101480.94;4900759;29;20052;-96
2023/03/02 04:04:35;;;;;;;8.27;3.22;;;;;;;2.63;100.00;101424.25;4902226;29;20029;-96
2023/03/02 04:07:07;;;;;;;10.35;3.58;;;;;;;2.87;100.00;101448.69;4901220;29;20040;-96
2023/03/02 04:09:36;;;;;;;7.72;3.60;;;;;;;2.71;100.00;101445.44;4885516;29;20025;-96
2023/03/02 04:12:11;;;;;;;7.03;3.05;;;;;;;2.76;100.00;101474.28;4901841;29;20073;-96
2023/03/02 04:14:48;;;;;;;6.60;3.45;;;;;;;2.69;100.00;101452.25;4903994;29;20005;-96
2023/03/02 04:17:22;;;;;;;8.35;4.05;;;;;;;2.57;100.00;101441.28;4904676;29;20044;-96
2023/03/02 04:25:02;;;;;;;5.22;3.00;;;;;;;2.60;100.00;101455.69;5234022;23;20064;-96
2023/03/02 04:27:40;;;;;;;;;;;;;;;;;;;;;
2023/03/02 04:33:05;;;;;;;6.03;3.08;;;;;;;2.49;100.00;101447.31;5048493;23;20060;-96
2023/03/02 04:35:31;;;;;;;8.70;3.42;;;;;;;2.45;100.00;101438.84;4939714;29;20100;-95
2023/03/02 04:38:00;;;;;;;8.38;3.10;;;;;;;2.91;100.00;101491.97;4933479;29;20037;-96
2023/03/02 04:40:28;;;;;;;7.10;2.78;;;;;;;2.58;100.00;101447.22;5337724;23;20035;-95
2023/03/02 04:42:57;;;;;;;6.25;3.10;;;;;;;2.48;100.00;101441.34;4960253;29;20023;-95
2023/03/02 04:47:59;;;;;;;7.93;3.50;;;;;;;2.84;100.00;101484.41;5379839;23;20048;-96
2023/03/02 04:50:31;;;;;;;6.72;2.78;;;;;;;2.49;100.00;101443.06;4906621;29;20032;-96
2023/03/02 04:53:01;;;;;;;;;;;;;;;2.74;100.00;101481.09;4921708;29;20040;-96
2023/03/02 04:55:30;;;;;;;5.68;3.10;;;;;;;2.40;100.00;101443.13;4905341;29;19924;-96
2023/03/02 04:57:57;;;;;;;6.75;2.50;;;;;;;2.59;100.00;101468.47;4903329;29;20049;-96
2023/03/02 05:00:27;;;;;;;5.78;2.78;;;;;;;2.66;100.00;101485.38;4887159;29;20069;-96
2023/03/02 05:03:04;;;;;;;12.30;3.53;;;;;;;2.67;100.00;101484.53;4891768;29;20029;-96
2023/03/02 05:05:33;;;;;;;5.55;2.58;;;;;;;2.37;100.00;101444.88;4884545;29;20086;-96
2023/03/02 05:08:03;;;;;;;7.43;3.10;;;;;;;2.37;100.00;101443.16;4900135;29;20062;-96
2023/03/02 05:10:31;;;;;;;4.60;2.67;;;;;;;2.54;100.00;101453.22;4883851;29;20010;-96
2023/03/02 05:13:04;;;;;;;5.93;2.88;;;;;;;2.53;100.00;101442.16;4883915;29;20029;-95
2023/03/02 05:15:40;;;;;;;9.02;3.22;;;;;;;2.52;100.00;101440.47;4901709;29;20139;-95
2023/03/02 05:18:35;;;;;;;6.43;3.45;;;;;;;2.47;100.00;101444.78;4902145;29;20021;-95
2023/03/02 05:21:03;;;;;;;4.80;3.03;;;;;;;2.72;100.00;101490.44;4883818;29;20048;-96
2023/03/02 05:23:34;;;;;;;4.75;2.83;;;;;;;2.49;99.47;101440.50;4882284;29;20063;-96
2023/03/02 05:26:07;;;;;;;5.65;3.30;;;;;;;2.59;98.55;101463.38;4899544;29;20046;-96
2023/03/02 05:28:36;;;;;;;5.65;3.40;;;;;;;2.61;99.44;101438.69;4897800;29;20041;-96
2023/03/02 05:31:05;;;;;;;5.20;3.67;;;;;;;2.61;100.00;101446.34;4882347;29;20032;-96
2023/03/02 05:33:37;;;;;;;7.25;3.72;;;;;;;2.65;100.00;101459.06;4896029;29;20051;-96
2023/03/02 05:36:23;;;;;;;6.38;3.88;;;;;;;2.68;100.00;101448.84;4913732;29;20049;-96
2023/03/02 05:38:57;;;;;;;5.25;4.13;;;;;;;2.59;100.00;101448.09;4883354;29;20040;-96
2023/03/02 05:41:31;;;;;;;5.18;3.60;;;;;;;2.56;100.00;101457.44;4914480;29;20028;-96
2023/03/02 05:44:04;;;;;;;6.07;3.90;;;;;;;2.68;100.00;101478.56;4913798;29;20036;-96
2023/03/02 05:46:32;;;;;;;5.05;3.17;;;;;;;2.47;100.00;101454.97;4914024;29;20028;-96
2023/03/02 05:49:13;;;;;;;4.90;3.33;;;;;;;2.36;100.00;101461.81;4913216;29;20033;-96
2023/03/02 05:51:43;;;;;;;6.30;3.60;;;;;;;2.46;97.41;101448.16;4914876;29;20025;-95
2023/03/02 05:54:17;;;;;;;4.45;3.58;;;;;;;2.39;96.59;101461.81;4912692;29;20036;-96
2023/03/02 05:56:46;;;;;;;3.45;3.05;;;;;;;2.35;94.44;101458.44;4912528;29;20037;-96
2023/03/02 05:59:14;;;;;;;6.90;3.53;;;;;;;2.16;94.89;101449.22;4912451;29;20104;-96
2023/03/02 06:01:40;;;;;;;5.22;3.00;;;;;;;2.07;92.65;101455.25;4914096;29;20530;-96
2023/03/02 06:04:11;;;;;;;8.20;3.30;;;;;;;2.00;93.06;101451.03;4914319;29;20028;-96
2023/03/02 06:06:40;;;;;;;6.38;3.25;;;;;;;1.89;96.01;101452.78;4915139;29;20029;-96
2023/03/02 06:09:26;;;;;;;4.32;3.15;;;;;;;1.88;95.74;101461.28;4914939;29;20043;-96
2023/03/02 06:12:04;;;;;;;3.83;3.10;;;;;;;1.96;94.44;101459.53;4914235;29;20088;-96
2023/03/02 06:14:33;;;;;;;5.10;3.65;;;;;;;1.71;95.53;101458.81;4914161;29;20040;-96
2023/03/02 06:17:01;;;;;;;3.28;2.97;;;;;;;1.74;94.29;101455.41;4895850;29;20057;-96
2023/03/02 06:19:48;;;;;;;5.30;2.88;;;;;;;1.62;92.65;101457.16;4882155;29;20040;-96
2023/03/02 06:23:00;;;;;;;5.25;2.78;;;;;;;1.88;91.87;101510.50;4902282;29;20045;-96
2023/03/02 06:28:33;;;;;;;9.38;3.60;;;;;;;1.27;93.20;101465.75;5017284;23;20037;-96
2023/03/02 06:31:02;;;;;;;4.10;2.83;;;;;;;1.32;90.57;101459.78;4912920;29;20044;-96
2023/03/02 06:33:51;;;;;;;4.38;2.80;;;;;;;1.24;91.63;101462.34;4914788;29;20032;-96
2023/03/02 06:39:25;;;;;;;3.03;2.70;;;;;;;1.14;91.79;101473.41;4916660;29;20069;-96
2023/03/02 06:41:56;;;;;;;7.05;3.03;;;;;;;0.96;91.99;101462.41;4916904;29;20008;-96
2023/03/02 06:44:27;;;;;;;3.22;2.78;;;;;;;0.87;92.78;101470.03;4911624;29;20044;-96
2023/03/02 06:46:53;;;;;;;;;;;;;;;0.83;97.05;101511.59;4929244;29;20055;-96
2023/03/02 06:49:19;;;;;;;5.22;3.30;;;;;;;0.69;94.87;101472.63;4916398;29;19926;-96
2023/03/02 06:51:47;;;;;;;6.47;3.53;;;;;;;0.83;90.63;101484.47;4901593;29;20037;-96
2023/03/02 06:54:19;;;;;;;4.43;3.40;;;;;;;0.92;87.91;101473.44;4905812;29;20036;-96
2023/03/02 06:56:50;;;;;;;4.60;3.47;;;;;;;0.91;90.04;101476.00;4918265;29;20334;-96
2023/03/02 06:59:22;;;;;;;4.20;3.17;;;;;;;0.81;91.19;101470.91;4915567;29;20069;-96
2023/03/02 07:46:45;;;;;;;14.35;8.65;;;;;;;1.87;82.33;101479.94;4922473;29;20395;-95
2023/03/02 07:49:13;;;;;;;15.60;8.93;;;;;;;1.96;82.43;101490.09;4920353;29;20062;-95
2023/03/02 07:51:41;;;;;;;13.20;8.02;;;;;;;2.17;83.40;101516.28;4920083;29;20036;-96
2023/03/02 07:54:26;;;;;;;12.25;8.20;;;;;;;2.08;81.92;101477.28;4923317;29;20031;-96
2023/03/02 07:57:04;;;;;;;11.73;8.13;;;;;;;2.39;81.09;101510.22;4926188;29;20399;-96
2023/03/02 07:59:30;;;;;;;13.23;8.73;;;;;;;2.24;80.51;101477.19;4918901;29;20028;-96
2023/03/02 08:02:00;;;;;;;13.30;7.70;;;;;;;2.47;80.23;101470.25;4920247;29;20031;-96
2023/03/02 08:04:57;;;;;;;15.45;8.30;;;;;;;3.42;78.93;101515.31;4918474;29;20437;-96
2023/03/02 08:11:14;;;;;;;13.27;8.30;;;;;;;6.01;64.51;101478.78;4923695;29;20044;-96
2023/03/02 08:14:12;;;;;;;12.98;7.63;;;;;;;6.74;61.01;101473.66;4910115;29;20044;-96
2023/03/02 08:17:33;;;;;;;;;;;;;;;;;;;;;
2023/03/02 08:20:54;;;;;;;;;;;;;;;;;;;;;
2023/03/02 08:29:43;;;;;;;12.48;7.68;;;;;;;8.98;52.89;101477.38;4886325;29;20032;-96
2023/03/02 08:32:46;;;;;;;9.52;6.97;;;;;;;9.27;51.26;101493.56;4901901;29;20027;-96
2023/03/02 10:30:21;;;;;;;16.45;12.20;;;;;;;13.26;42.92;101564.44;4929198;29;20071;-96
2023/03/02 10:33:20;;;;;;;15.98;11.65;;;;;;;11.56;45.77;101524.09;4919734;29;20515;-96
2023/03/02 10:35:51;;;;;;;17.58;11.88;;;;;;;10.76;47.59;101562.81;4907390;29;20036;-96
2023/03/02 10:38:45;;;;;;;14.88;11.23;;;;;;;9.41;49.09;101536.84;4919131;29;20039;-96
2023/03/02 10:44:03;;;;;;;19.00;13.00;;;;;;;7.64;52.89;101555.19;4893671;29;20057;-96
2023/03/02 10:46:39;;;;;;;18.33;12.63;;;;;;;7.54;53.54;101543.47;4882177;29;20025;-96
2023/03/02 10:49:30;;;;;;;17.17;11.27;;;;;;;7.98;53.57;101554.25;4883774;29;20048;-96
2023/03/02 18:09:12;;;;;;;;;;;;;;;2.02;83.84;101543.50;5134105;23;20036;-96
2023/03/02 18:38:19;;;;;;;10.25;7.22;;;;;;;1.55;90.25;101506.38;4954426;23;20095;-96
2023/03/02 18:55:39;;;;;;;;;;;;;;;;;;;;;
2023/03/02 18:59:00;;;;;;;;;;;;;;;;;;;;;
2023/03/02 19:04:37;;;;;;;11.63;5.25;;;;;;;1.77;91.47;101595.38;4968136;23;20507;-96
2023/03/02 19:07:15;;;;;;;;;;;;;;;;;;;;;
2023/03/02 19:09:56;;;;;;;10.65;5.93;;;;;;;1.41;94.11;101569.16;5735078;23;20716;-96
2023/03/02 19:12:31;;;;;;;7.57;4.88;;;;;;;1.47;92.29;101548.81;4927549;29;20036;-96
2023/03/02 19:15:39;;;;;;;11.25;4.63;;;;;;;1.55;91.30;101549.63;4921113;29;20043;-96
2023/03/02 19:18:38;;;;;;;8.13;4.13;;;;;;;1.77;90.42;101572.47;5327974;23;20056;-96
2023/03/02 19:22:05;;;;;;;7.78;3.45;;;;;;;1.56;91.28;101561.50;4900537;29;20044;-96
2023/03/02 19:30:15;;;;;;;7.72;4.60;;;;;;;1.69;89.56;101552.97;4924403;29;20055;-96
2023/03/02 19:33:43;;;;;;;5.65;3.60;;;;;;;2.01;89.99;101608.03;4925757;29;20024;-96
2023/03/02 19:44:19;;;;;;;7.50;3.60;;;;;;;1.43;91.62;101572.53;4962081;23;20063;-96
